sensor_id;sensor_type;location;lat;lon;timestamp;pressure;altitude;pressure_sealevel;temperature;humidity
43878;BME280;29815;48.184;11.268;2022-08-20T00:01:00;95508.63;;;16.44;100.00
43878;BME280;29815;48.184;11.268;2022-08-20T00:03:34;95498.56;;;16.45;100.00
43878;BME280;29815;48.184;11.268;2022-08-20T00:06:10;95499.94;;;16.56;100.00
43878;BME280;29815;48.184;11.268;2022-08-20T00:08:42;95492.22;;;16.49;100.00
43878;BME280;29815;48.184;11.268;2022-08-20T00:11:25;95489.31;;;16.46;100.00
43878;BME280;29815;48.184;11.268;2022-08-20T00:13:59;95482.25;;;16.45;100.00
43878;BME280;29815;48.184;11.268;2022-08-20T00:16:34;95486.88;;;16.44;100.00
43878;BME280;29815;48.184;11.268;2022-08-20T00:19:07;95482.88;;;16.42;100.00
43878;BME280;29815;48.184;11.268;2022-08-20T00:21:37;95481.94;;;16.46;100.00
43878;BME280;29815;48.184;11.268;2022-08-20T00:24:09;95485.66;;;16.50;100.00
43878;BME280;29815;48.184;11.268;2022-08-20T00:26:38;95491.91;;;16.51;100.00
43878;BME280;29815;48.184;11.268;2022-08-20T00:29:21;95491.41;;;16.49;100.00
43878;BME280;29815;48.184;11.268;2022-08-20T00:31:50;95487.28;;;16.51;100.00
43878;BME280;29815;48.184;11.268;2022-08-20T00:34:20;95488.56;;;16.54;100.00
43878;BME280;29815;48.184;11.268;2022-08-20T00:36:50;95489.78;;;16.48;100.00
43878;BME280;29815;48.184;11.268;2022-08-20T00:39:19;95500.06;;;16.51;100.00
43878;BME280;29815;48.184;11.268;2022-08-20T00:41:49;95493.00;;;16.50;100.00
43878;BME280;29815;48.184;11.268;2022-08-20T00:44:22;95497.34;;;16.51;100.00
43878;BME280;29815;48.184;11.268;2022-08-20T00:46:59;95503.56;;;16.51;100.00
43878;BME280;29815;48.184;11.268;2022-08-20T00:49:30;95498.94;;;16.52;100.00
43878;BME280;29815;48.184;11.268;2022-08-20T00:52:06;95504.69;;;16.50;100.00
43878;BME280;29815;48.184;11.268;2022-08-20T00:54:43;95502.47;;;16.52;100.00
43878;BME280;29815;48.184;11.268;2022-08-20T00:57:21;95499.06;;;16.47;100.00
43878;BME280;29815;48.184;11.268;2022-08-20T00:59:56;95499.97;;;16.42;100.00
43878;BME280;29815;48.184;11.268;2022-08-20T01:02:28;95496.94;;;16.44;100.00
43878;BME280;29815;48.184;11.268;2022-08-20T01:04:59;95498.06;;;16.43;100.00
43878;BME280;29815;48.184;11.268;2022-08-20T01:07:29;95496.16;;;16.43;100.00
43878;BME280;29815;48.184;11.268;2022-08-20T01:10:07;95503.81;;;16.41;100.00
43878;BME280;29815;48.184;11.268;2022-08-20T01:12:41;95499.63;;;16.35;100.00
43878;BME280;29815;48.184;11.268;2022-08-20T01:15:19;95498.31;;;16.33;100.00
43878;BME280;29815;48.184;11.268;2022-08-20T01:18:00;95498.81;;;16.35;100.00
43878;BME280;29815;48.184;11.268;2022-08-20T01:20:32;95500.94;;;16.38;100.00
43878;BME280;29815;48.184;11.268;2022-08-20T01:23:13;95494.38;;;16.39;100.00
43878;BME280;29815;48.184;11.268;2022-08-20T01:26:03;95500.63;;;16.39;100.00
43878;BME280;29815;48.184;11.268;2022-08-20T01:28:39;95496.91;;;16.35;100.00
43878;BME280;29815;48.184;11.268;2022-08-20T01:31:13;95495.19;;;16.39;100.00
43878;BME280;29815;48.184;11.268;2022-08-20T01:33:48;95495.78;;;16.36;100.00
43878;BME280;29815;48.184;11.268;2022-08-20T01:36:25;95502.53;;;16.39;100.00
43878;BME280;29815;48.184;11.268;2022-08-20T01:38:57;95499.63;;;16.35;100.00
43878;BME280;29815;48.184;11.268;2022-08-20T01:41:40;95493.69;;;16.33;100.00
43878;BME280;29815;48.184;11.268;2022-08-20T01:44:18;95495.41;;;16.29;100.00
43878;BME280;29815;48.184;11.268;2022-08-20T01:46:53;95498.13;;;16.29;100.00
43878;BME280;29815;48.184;11.268;2022-08-20T01:49:29;95500.47;;;16.22;100.00
43878;BME280;29815;48.184;11.268;2022-08-20T01:52:06;95508.59;;;16.22;100.00
43878;BME280;29815;48.184;11.268;2022-08-20T01:54:36;95507.59;;;16.18;100.00
43878;BME280;29815;48.184;11.268;2022-08-20T01:57:12;95511.13;;;16.18;100.00
43878;BME280;29815;48.184;11.268;2022-08-20T01:59:43;95510.00;;;16.19;100.00
43878;BME280;29815;48.184;11.268;2022-08-20T02:02:13;95520.38;;;16.17;100.00
43878;BME280;29815;48.184;11.268;2022-08-20T02:04:42;95524.19;;;16.16;100.00
43878;BME280;29815;48.184;11.268;2022-08-20T02:07:17;95521.19;;;16.18;100.00
43878;BME280;29815;48.184;11.268;2022-08-20T02:09:49;95523.41;;;16.16;100.00
43878;BME280;29815;48.184;11.268;2022-08-20T02:12:20;95529.03;;;16.19;100.00
43878;BME280;29815;48.184;11.268;2022-08-20T02:14:53;95532.25;;;16.21;100.00
43878;BME280;29815;48.184;11.268;2022-08-20T02:17:25;95531.44;;;16.21;100.00
43878;BME280;29815;48.184;11.268;2022-08-20T02:20:00;95522.06;;;16.27;100.00
43878;BME280;29815;48.184;11.268;2022-08-20T02:22:38;95528.09;;;16.24;100.00
43878;BME280;29815;48.184;11.268;2022-08-20T02:25:20;95525.69;;;16.22;100.00
43878;BME280;29815;48.184;11.268;2022-08-20T02:27:55;95527.09;;;16.20;100.00
43878;BME280;29815;48.184;11.268;2022-08-20T02:30:30;95527.31;;;16.23;100.00
43878;BME280;29815;48.184;11.268;2022-08-20T02:33:04;95522.97;;;16.22;100.00
43878;BME280;29815;48.184;11.268;2022-08-20T02:35:36;95528.72;;;16.21;100.00
43878;BME280;29815;48.184;11.268;2022-08-20T02:38:07;95520.88;;;16.19;100.00
43878;BME280;29815;48.184;11.268;2022-08-20T02:40:37;95525.00;;;16.17;100.00
43878;BME280;29815;48.184;11.268;2022-08-20T02:43:09;95519.56;;;16.17;100.00
43878;BME280;29815;48.184;11.268;2022-08-20T02:45:40;95517.66;;;16.17;100.00
43878;BME280;29815;48.184;11.268;2022-08-20T02:48:15;95527.72;;;16.17;100.00
43878;BME280;29815;48.184;11.268;2022-08-20T02:50:53;95523.91;;;16.18;100.00
43878;BME280;29815;48.184;11.268;2022-08-20T02:53:24;95516.69;;;16.13;100.00
43878;BME280;29815;48.184;11.268;2022-08-20T02:55:55;95519.06;;;16.15;100.00
43878;BME280;29815;48.184;11.268;2022-08-20T02:58:26;95521.31;;;16.13;100.00
43878;BME280;29815;48.184;11.268;2022-08-20T03:00:56;95517.97;;;16.16;100.00
43878;BME280;29815;48.184;11.268;2022-08-20T03:03:25;95517.81;;;16.12;100.00
43878;BME280;29815;48.184;11.268;2022-08-20T03:05:57;95515.38;;;16.11;100.00
43878;BME280;29815;48.184;11.268;2022-08-20T03:08:27;95516.19;;;16.11;100.00
43878;BME280;29815;48.184;11.268;2022-08-20T03:10:57;95509.81;;;16.16;100.00
43878;BME280;29815;48.184;11.268;2022-08-20T03:13:28;95515.94;;;16.21;100.00
43878;BME280;29815;48.184;11.268;2022-08-20T03:16:00;95517.34;;;16.19;100.00
43878;BME280;29815;48.184;11.268;2022-08-20T03:18:34;95519.78;;;16.20;100.00
43878;BME280;29815;48.184;11.268;2022-08-20T03:21:07;95517.06;;;16.20;100.00
43878;BME280;29815;48.184;11.268;2022-08-20T03:23:42;95516.34;;;16.15;100.00
43878;BME280;29815;48.184;11.268;2022-08-20T03:26:13;95524.50;;;16.15;100.00
43878;BME280;29815;48.184;11.268;2022-08-20T03:28:44;95528.66;;;16.12;100.00
43878;BME280;29815;48.184;11.268;2022-08-20T03:31:16;95525.59;;;16.14;100.00
43878;BME280;29815;48.184;11.268;2022-08-20T03:33:46;95519.50;;;16.08;100.00
43878;BME280;29815;48.184;11.268;2022-08-20T03:36:21;95529.75;;;16.11;100.00
43878;BME280;29815;48.184;11.268;2022-08-20T03:38:58;95530.38;;;16.08;100.00
43878;BME280;29815;48.184;11.268;2022-08-20T03:41:29;95524.13;;;16.08;100.00
43878;BME280;29815;48.184;11.268;2022-08-20T03:44:01;95531.97;;;16.09;100.00
43878;BME280;29815;48.184;11.268;2022-08-20T03:46:31;95535.00;;;16.08;100.00
43878;BME280;29815;48.184;11.268;2022-08-20T03:49:01;95531.78;;;16.06;100.00
43878;BME280;29815;48.184;11.268;2022-08-20T03:51:32;95535.81;;;16.08;100.00
43878;BME280;29815;48.184;11.268;2022-08-20T03:54:21;95541.72;;;16.10;100.00
43878;BME280;29815;48.184;11.268;2022-08-20T03:56:57;95547.97;;;16.11;100.00
43878;BME280;29815;48.184;11.268;2022-08-20T03:59:28;95549.28;;;16.13;100.00
43878;BME280;29815;48.184;11.268;2022-08-20T04:02:00;95552.00;;;16.13;100.00
43878;BME280;29815;48.184;11.268;2022-08-20T04:04:29;95557.59;;;16.17;100.00
43878;BME280;29815;48.184;11.268;2022-08-20T04:06:59;95549.63;;;16.20;100.00
43878;BME280;29815;48.184;11.268;2022-08-20T04:09:29;95552.16;;;16.17;100.00
43878;BME280;29815;48.184;11.268;2022-08-20T04:11:58;95552.47;;;16.15;100.00
43878;BME280;29815;48.184;11.268;2022-08-20T04:14:29;95559.50;;;16.16;100.00
43878;BME280;29815;48.184;11.268;2022-08-20T04:17:04;95556.63;;;16.13;100.00
43878;BME280;29815;48.184;11.268;2022-08-20T04:19:35;95556.28;;;16.14;100.00
43878;BME280;29815;48.184;11.268;2022-08-20T04:22:06;95565.88;;;16.12;100.00
43878;BME280;29815;48.184;11.268;2022-08-20T04:24:35;95563.63;;;16.14;100.00
43878;BME280;29815;48.184;11.268;2022-08-20T04:27:06;95563.97;;;16.12;100.00
43878;BME280;29815;48.184;11.268;2022-08-20T04:29:40;95561.53;;;16.11;100.00
43878;BME280;29815;48.184;11.268;2022-08-20T04:32:11;95560.75;;;16.10;100.00
43878;BME280;29815;48.184;11.268;2022-08-20T04:34:44;95560.13;;;16.13;100.00
43878;BME280;29815;48.184;11.268;2022-08-20T04:37:19;95563.03;;;16.17;100.00
43878;BME280;29815;48.184;11.268;2022-08-20T04:39:49;95566.22;;;16.19;100.00
43878;BME280;29815;48.184;11.268;2022-08-20T04:42:35;95573.22;;;16.11;100.00
43878;BME280;29815;48.184;11.268;2022-08-20T04:45:08;95576.53;;;16.08;100.00
43878;BME280;29815;48.184;11.268;2022-08-20T04:47:39;95574.31;;;16.10;100.00
43878;BME280;29815;48.184;11.268;2022-08-20T04:50:10;95582.47;;;16.10;100.00
43878;BME280;29815;48.184;11.268;2022-08-20T04:52:41;95583.25;;;16.11;100.00
43878;BME280;29815;48.184;11.268;2022-08-20T04:55:10;95578.13;;;16.09;100.00
43878;BME280;29815;48.184;11.268;2022-08-20T04:57:40;95582.47;;;16.10;100.00
43878;BME280;29815;48.184;11.268;2022-08-20T05:00:15;95583.75;;;16.13;100.00
43878;BME280;29815;48.184;11.268;2022-08-20T05:02:45;95587.28;;;16.13;100.00
43878;BME280;29815;48.184;11.268;2022-08-20T05:05:14;95586.94;;;16.15;100.00
43878;BME280;29815;48.184;11.268;2022-08-20T05:07:45;95578.41;;;16.21;100.00
43878;BME280;29815;48.184;11.268;2022-08-20T05:10:17;95584.44;;;16.18;100.00
43878;BME280;29815;48.184;11.268;2022-08-20T05:12:46;95584.63;;;16.22;100.00
43878;BME280;29815;48.184;11.268;2022-08-20T05:15:25;95584.63;;;16.22;100.00
43878;BME280;29815;48.184;11.268;2022-08-20T05:17:56;95596.00;;;16.24;100.00
43878;BME280;29815;48.184;11.268;2022-08-20T05:20:31;95588.66;;;16.24;100.00
43878;BME280;29815;48.184;11.268;2022-08-20T05:23:02;95595.69;;;16.25;100.00
43878;BME280;29815;48.184;11.268;2022-08-20T05:25:32;95585.03;;;16.29;100.00
43878;BME280;29815;48.184;11.268;2022-08-20T05:28:06;95592.19;;;16.25;100.00
43878;BME280;29815;48.184;11.268;2022-08-20T05:30:43;95590.16;;;16.31;100.00
43878;BME280;29815;48.184;11.268;2022-08-20T05:33:17;95595.78;;;16.34;100.00
43878;BME280;29815;48.184;11.268;2022-08-20T05:35:48;95596.59;;;16.35;100.00
43878;BME280;29815;48.184;11.268;2022-08-20T05:38:22;95607.81;;;16.42;100.00
43878;BME280;29815;48.184;11.268;2022-08-20T05:40:54;95602.41;;;16.42;100.00
43878;BME280;29815;48.184;11.268;2022-08-20T05:43:23;95601.72;;;16.36;100.00
43878;BME280;29815;48.184;11.268;2022-08-20T05:45:56;95593.28;;;16.38;100.00
43878;BME280;29815;48.184;11.268;2022-08-20T05:48:26;95601.13;;;16.39;100.00
43878;BME280;29815;48.184;11.268;2022-08-20T05:50:57;95605.44;;;16.40;100.00
43878;BME280;29815;48.184;11.268;2022-08-20T05:53:26;95601.13;;;16.39;100.00
43878;BME280;29815;48.184;11.268;2022-08-20T05:55:56;95601.28;;;16.43;100.00
43878;BME280;29815;48.184;11.268;2022-08-20T05:58:28;95608.31;;;16.44;100.00
43878;BME280;29815;48.184;11.268;2022-08-20T06:01:01;95606.41;;;16.44;100.00
43878;BME280;29815;48.184;11.268;2022-08-20T06:03:31;95605.81;;;16.47;100.00
43878;BME280;29815;48.184;11.268;2022-08-20T06:06:19;95613.97;;;16.47;100.00
43878;BME280;29815;48.184;11.268;2022-08-20T06:09:08;95614.16;;;16.51;100.00
43878;BME280;29815;48.184;11.268;2022-08-20T06:11:38;95610.84;;;16.54;100.00
43878;BME280;29815;48.184;11.268;2022-08-20T06:14:07;95618.19;;;16.53;100.00
43878;BME280;29815;48.184;11.268;2022-08-20T06:16:38;95617.56;;;16.56;100.00
43878;BME280;29815;48.184;11.268;2022-08-20T06:19:25;95621.91;;;16.57;100.00
43878;BME280;29815;48.184;11.268;2022-08-20T06:22:00;95621.28;;;16.61;100.00
43878;BME280;29815;48.184;11.268;2022-08-20T06:24:47;95622.91;;;16.62;100.00
43878;BME280;29815;48.184;11.268;2022-08-20T06:27:17;95624.72;;;16.66;100.00
43878;BME280;29815;48.184;11.268;2022-08-20T06:29:47;95627.94;;;16.68;100.00
43878;BME280;29815;48.184;11.268;2022-08-20T06:32:20;95631.44;;;16.69;100.00
43878;BME280;29815;48.184;11.268;2022-08-20T06:35:00;95631.31;;;16.74;100.00
43878;BME280;29815;48.184;11.268;2022-08-20T06:37:32;95637.47;;;16.79;100.00
43878;BME280;29815;48.184;11.268;2022-08-20T06:40:10;95643.09;;;16.83;100.00
43878;BME280;29815;48.184;11.268;2022-08-20T06:42:41;95638.53;;;16.92;100.00
43878;BME280;29815;48.184;11.268;2022-08-20T06:45:20;95633.44;;;16.99;100.00
43878;BME280;29815;48.184;11.268;2022-08-20T06:47:55;95632.34;;;17.00;100.00
43878;BME280;29815;48.184;11.268;2022-08-20T06:50:30;95639.78;;;17.08;100.00
43878;BME280;29815;48.184;11.268;2022-08-20T06:53:17;95639.34;;;17.15;100.00
43878;BME280;29815;48.184;11.268;2022-08-20T06:55:53;95632.19;;;17.19;100.00
43878;BME280;29815;48.184;11.268;2022-08-20T06:58:24;95642.44;;;17.22;100.00
43878;BME280;29815;48.184;11.268;2022-08-20T07:01:06;95646.63;;;17.28;100.00
43878;BME280;29815;48.184;11.268;2022-08-20T07:03:41;95640.94;;;17.38;100.00
43878;BME280;29815;48.184;11.268;2022-08-20T07:06:24;95642.56;;;17.39;100.00
43878;BME280;29815;48.184;11.268;2022-08-20T07:08:54;95641.94;;;17.42;100.00
43878;BME280;29815;48.184;11.268;2022-08-20T07:11:24;95642.91;;;17.46;100.00
43878;BME280;29815;48.184;11.268;2022-08-20T07:13:56;95643.56;;;17.52;100.00
43878;BME280;29815;48.184;11.268;2022-08-20T07:16:27;95650.13;;;17.51;100.00
43878;BME280;29815;48.184;11.268;2022-08-20T07:18:58;95648.53;;;17.50;100.00
43878;BME280;29815;48.184;11.268;2022-08-20T07:21:27;95647.75;;;17.49;100.00
43878;BME280;29815;48.184;11.268;2022-08-20T07:23:57;95647.41;;;17.51;100.00
43878;BME280;29815;48.184;11.268;2022-08-20T07:26:26;95642.94;;;17.55;100.00
43878;BME280;29815;48.184;11.268;2022-08-20T07:28:57;95651.78;;;17.60;100.00
43878;BME280;29815;48.184;11.268;2022-08-20T07:31:26;95648.28;;;17.60;100.00
43878;BME280;29815;48.184;11.268;2022-08-20T07:34:16;95651.47;;;17.62;100.00
43878;BME280;29815;48.184;11.268;2022-08-20T07:36:46;95647.38;;;17.65;100.00
43878;BME280;29815;48.184;11.268;2022-08-20T07:39:17;95650.59;;;17.67;100.00
43878;BME280;29815;48.184;11.268;2022-08-20T07:41:47;95659.25;;;17.69;100.00
43878;BME280;29815;48.184;11.268;2022-08-20T07:44:30;95660.03;;;17.69;100.00
43878;BME280;29815;48.184;11.268;2022-08-20T07:46:59;95667.72;;;17.67;100.00
43878;BME280;29815;48.184;11.268;2022-08-20T07:49:36;95671.63;;;17.75;100.00
43878;BME280;29815;48.184;11.268;2022-08-20T07:52:06;95673.84;;;17.73;100.00
43878;BME280;29815;48.184;11.268;2022-08-20T07:54:36;95682.00;;;17.73;100.00
43878;BME280;29815;48.184;11.268;2022-08-20T07:57:11;95670.00;;;17.74;100.00
43878;BME280;29815;48.184;11.268;2022-08-20T07:59:41;95669.50;;;17.72;100.00
43878;BME280;29815;48.184;11.268;2022-08-20T08:02:12;95669.50;;;17.72;100.00
43878;BME280;29815;48.184;11.268;2022-08-20T08:04:42;95671.13;;;17.73;100.00
43878;BME280;29815;48.184;11.268;2022-08-20T08:07:12;95666.97;;;17.75;100.00
43878;BME280;29815;48.184;11.268;2022-08-20T08:09:44;95675.13;;;17.75;100.00
43878;BME280;29815;48.184;11.268;2022-08-20T08:12:15;95670.19;;;17.77;100.00
43878;BME280;29815;48.184;11.268;2022-08-20T08:14:45;95666.97;;;17.75;100.00
43878;BME280;29815;48.184;11.268;2022-08-20T08:17:17;95674.19;;;17.80;100.00
43878;BME280;29815;48.184;11.268;2022-08-20T08:19:50;95684.59;;;17.78;100.00
43878;BME280;29815;48.184;11.268;2022-08-20T08:22:19;95686.53;;;17.86;100.00
43878;BME280;29815;48.184;11.268;2022-08-20T08:24:49;95687.47;;;17.81;100.00
43878;BME280;29815;48.184;11.268;2022-08-20T08:27:24;95686.72;;;17.89;100.00
43878;BME280;29815;48.184;11.268;2022-08-20T08:29:54;95687.53;;;17.90;100.00
43878;BME280;29815;48.184;11.268;2022-08-20T08:32:24;95695.53;;;17.86;100.00
43878;BME280;29815;48.184;11.268;2022-08-20T08:34:54;95693.16;;;17.93;100.00
43878;BME280;29815;48.184;11.268;2022-08-20T08:37:24;95682.28;;;17.93;100.00
43878;BME280;29815;48.184;11.268;2022-08-20T08:39:58;95689.31;;;17.95;100.00
43878;BME280;29815;48.184;11.268;2022-08-20T08:42:35;95690.81;;;18.01;100.00
43878;BME280;29815;48.184;11.268;2022-08-20T08:45:12;95699.31;;;18.08;100.00
43878;BME280;29815;48.184;11.268;2022-08-20T08:47:45;95696.13;;;18.14;100.00
43878;BME280;29815;48.184;11.268;2022-08-20T08:50:24;95706.41;;;18.17;100.00
43878;BME280;29815;48.184;11.268;2022-08-20T08:53:20;95703.72;;;18.26;100.00
43878;BME280;29815;48.184;11.268;2022-08-20T08:55:52;95708.56;;;18.29;100.00
43878;BME280;29815;48.184;11.268;2022-08-20T08:58:22;95707.13;;;18.32;100.00
43878;BME280;29815;48.184;11.268;2022-08-20T09:00:51;95701.19;;;18.30;100.00
43878;BME280;29815;48.184;11.268;2022-08-20T09:03:28;95703.25;;;18.33;100.00
43878;BME280;29815;48.184;11.268;2022-08-20T09:06:02;95701.06;;;18.43;100.00
43878;BME280;29815;48.184;11.268;2022-08-20T09:08:37;95698.38;;;18.52;100.00
43878;BME280;29815;48.184;11.268;2022-08-20T09:11:09;95698.72;;;18.59;100.00
43878;BME280;29815;48.184;11.268;2022-08-20T09:13:39;95697.44;;;18.65;100.00
43878;BME280;29815;48.184;11.268;2022-08-20T09:16:10;95701.19;;;18.78;100.00
43878;BME280;29815;48.184;11.268;2022-08-20T09:18:40;95693.47;;;18.88;100.00
43878;BME280;29815;48.184;11.268;2022-08-20T09:21:11;95700.88;;;18.97;100.00
43878;BME280;29815;48.184;11.268;2022-08-20T09:23:41;95698.81;;;19.11;100.00
43878;BME280;29815;48.184;11.268;2022-08-20T09:26:11;95700.25;;;19.17;100.00
43878;BME280;29815;48.184;11.268;2022-08-20T09:28:40;95687.25;;;19.22;100.00
43878;BME280;29815;48.184;11.268;2022-08-20T09:31:10;95702.03;;;19.30;100.00
43878;BME280;29815;48.184;11.268;2022-08-20T09:33:43;95696.41;;;19.35;100.00
43878;BME280;29815;48.184;11.268;2022-08-20T09:36:14;95699.44;;;19.42;100.00
43878;BME280;29815;48.184;11.268;2022-08-20T09:39:00;95695.25;;;19.45;100.00
43878;BME280;29815;48.184;11.268;2022-08-20T09:41:31;95688.22;;;19.52;100.00
43878;BME280;29815;48.184;11.268;2022-08-20T09:44:02;95692.88;;;19.52;100.00
43878;BME280;29815;48.184;11.268;2022-08-20T09:46:32;95690.47;;;19.50;100.00
43878;BME280;29815;48.184;11.268;2022-08-20T09:49:01;95690.63;;;19.54;100.00
43878;BME280;29815;48.184;11.268;2022-08-20T09:51:32;95681.16;;;19.51;100.00
43878;BME280;29815;48.184;11.268;2022-08-20T09:54:05;95682.41;;;19.45;100.00
43878;BME280;29815;48.184;11.268;2022-08-20T09:56:35;95680.81;;;19.44;100.00
43878;BME280;29815;48.184;11.268;2022-08-20T09:59:05;95680.97;;;19.48;100.00
43878;BME280;29815;48.184;11.268;2022-08-20T10:01:34;95681.16;;;19.51;100.00
43878;BME280;29815;48.184;11.268;2022-08-20T10:04:04;95681.94;;;19.43;100.00
43878;BME280;29815;48.184;11.268;2022-08-20T10:06:38;95680.31;;;19.42;100.00
43878;BME280;29815;48.184;11.268;2022-08-20T10:09:09;95679.19;;;19.43;100.00
43878;BME280;29815;48.184;11.268;2022-08-20T10:11:38;95685.47;;;19.44;100.00
43878;BME280;29815;48.184;11.268;2022-08-20T10:14:08;95683.69;;;19.48;100.00
43878;BME280;29815;48.184;11.268;2022-08-20T10:16:38;95679.69;;;19.45;100.00
43878;BME280;29815;48.184;11.268;2022-08-20T10:19:07;95674.53;;;19.44;100.00
43878;BME280;29815;48.184;11.268;2022-08-20T10:21:38;95676.94;;;19.45;100.00
43878;BME280;29815;48.184;11.268;2022-08-20T10:24:08;95673.78;;;19.52;100.00
43878;BME280;29815;48.184;11.268;2022-08-20T10:26:37;95676.00;;;19.58;100.00
43878;BME280;29815;48.184;11.268;2022-08-20T10:29:07;95673.94;;;19.64;100.00
43878;BME280;29815;48.184;11.268;2022-08-20T10:31:37;95677.25;;;19.70;100.00
43878;BME280;29815;48.184;11.268;2022-08-20T10:34:06;95688.03;;;19.75;100.00
43878;BME280;29815;48.184;11.268;2022-08-20T10:36:37;95679.66;;;19.80;100.00
43878;BME280;29815;48.184;11.268;2022-08-20T10:39:07;95673.56;;;19.83;100.00
43878;BME280;29815;48.184;11.268;2022-08-20T10:41:37;95675.47;;;19.82;100.00
43878;BME280;29815;48.184;11.268;2022-08-20T10:44:07;95675.31;;;19.79;100.00
43878;BME280;29815;48.184;11.268;2022-08-20T10:46:36;95666.47;;;19.82;100.00
43878;BME280;29815;48.184;11.268;2022-08-20T10:49:06;95669.38;;;19.85;100.00
43878;BME280;29815;48.184;11.268;2022-08-20T10:51:35;95668.06;;;19.91;100.00
43878;BME280;29815;48.184;11.268;2022-08-20T10:54:07;95662.44;;;19.88;100.00
43878;BME280;29815;48.184;11.268;2022-08-20T10:56:39;95664.38;;;19.96;100.00
43878;BME280;29815;48.184;11.268;2022-08-20T10:59:09;95669.44;;;20.06;100.00
43878;BME280;29815;48.184;11.268;2022-08-20T11:01:38;95673.63;;;20.12;100.00
43878;BME280;29815;48.184;11.268;2022-08-20T11:04:08;95670.84;;;20.21;100.00
43878;BME280;29815;48.184;11.268;2022-08-20T11:06:38;95668.22;;;20.33;100.00
43878;BME280;29815;48.184;11.268;2022-08-20T11:09:09;95661.28;;;20.36;100.00
43878;BME280;29815;48.184;11.268;2022-08-20T11:11:39;95663.69;;;20.46;100.00
43878;BME280;29815;48.184;11.268;2022-08-20T11:14:08;95669.66;;;20.39;100.00
43878;BME280;29815;48.184;11.268;2022-08-20T11:16:38;95664.69;;;20.41;100.00
43878;BME280;29815;48.184;11.268;2022-08-20T11:19:07;95668.63;;;20.52;100.00
43878;BME280;29815;48.184;11.268;2022-08-20T11:21:37;95668.63;;;20.52;100.00
43878;BME280;29815;48.184;11.268;2022-08-20T11:24:06;95657.81;;;20.56;100.00
43878;BME280;29815;48.184;11.268;2022-08-20T11:26:37;95660.38;;;20.61;100.00
43878;BME280;29815;48.184;11.268;2022-08-20T11:29:07;95660.81;;;20.72;100.00
43878;BME280;29815;48.184;11.268;2022-08-20T11:31:36;95659.38;;;20.66;100.00
43878;BME280;29815;48.184;11.268;2022-08-20T11:34:06;95665.16;;;20.73;100.00
43878;BME280;29815;48.184;11.268;2022-08-20T11:36:40;95658.72;;;20.69;100.00
43878;BME280;29815;48.184;11.268;2022-08-20T11:39:10;95657.94;;;20.68;100.00
43878;BME280;29815;48.184;11.268;2022-08-20T11:41:41;95659.00;;;20.76;100.00
43878;BME280;29815;48.184;11.268;2022-08-20T11:44:13;95660.53;;;20.65;100.00
43878;BME280;29815;48.184;11.268;2022-08-20T11:46:49;95652.34;;;20.56;100.00
43878;BME280;29815;48.184;11.268;2022-08-20T11:49:18;95649.09;;;20.63;100.00
43878;BME280;29815;48.184;11.268;2022-08-20T11:51:48;95653.78;;;20.62;100.00
43878;BME280;29815;48.184;11.268;2022-08-20T11:54:17;95657.94;;;20.68;100.00
43878;BME280;29815;48.184;11.268;2022-08-20T11:56:49;95653.13;;;20.65;100.00
43878;BME280;29815;48.184;11.268;2022-08-20T11:59:19;95662.41;;;20.73;100.00
43878;BME280;29815;48.184;11.268;2022-08-20T12:01:48;95659.59;;;20.81;100.00
43878;BME280;29815;48.184;11.268;2022-08-20T12:04:30;95667.56;;;20.95;100.00
43878;BME280;29815;48.184;11.268;2022-08-20T12:07:09;95658.81;;;21.02;100.00
43878;BME280;29815;48.184;11.268;2022-08-20T12:09:40;95654.53;;;21.13;100.00
43878;BME280;29815;48.184;11.268;2022-08-20T12:12:21;95659.97;;;21.21;100.00
43878;BME280;29815;48.184;11.268;2022-08-20T12:14:53;95656.25;;;21.26;100.00
43878;BME280;29815;48.184;11.268;2022-08-20T12:17:25;95668.38;;;21.37;100.00
43878;BME280;29815;48.184;11.268;2022-08-20T12:19:59;95662.03;;;21.45;100.00
43878;BME280;29815;48.184;11.268;2022-08-20T12:22:30;95663.75;;;21.50;100.00
43878;BME280;29815;48.184;11.268;2022-08-20T12:25:00;95661.63;;;21.55;100.00
43878;BME280;29815;48.184;11.268;2022-08-20T12:27:33;95654.66;;;21.58;100.00
43878;BME280;29815;48.184;11.268;2022-08-20T12:30:07;95648.72;;;21.56;100.00
43878;BME280;29815;48.184;11.268;2022-08-20T12:32:39;95640.97;;;21.58;100.00
43878;BME280;29815;48.184;11.268;2022-08-20T12:35:10;95654.16;;;21.44;100.00
43878;BME280;29815;48.184;11.268;2022-08-20T12:37:42;95641.25;;;21.44;100.00
43878;BME280;29815;48.184;11.268;2022-08-20T12:40:17;95643.66;;;21.46;100.00
43878;BME280;29815;48.184;11.268;2022-08-20T12:43:02;95640.59;;;21.47;100.00
43878;BME280;29815;48.184;11.268;2022-08-20T12:45:33;95635.56;;;21.49;100.00
43878;BME280;29815;48.184;11.268;2022-08-20T12:48:09;95631.03;;;21.53;100.00
43878;BME280;29815;48.184;11.268;2022-08-20T12:50:42;95627.94;;;21.55;100.00
43878;BME280;29815;48.184;11.268;2022-08-20T12:53:12;95636.28;;;21.58;100.00
43878;BME280;29815;48.184;11.268;2022-08-20T12:55:42;95637.78;;;21.56;100.00
43878;BME280;29815;48.184;11.268;2022-08-20T12:58:13;95651.22;;;21.61;100.00
43878;BME280;29815;48.184;11.268;2022-08-20T13:00:44;95657.28;;;21.54;100.00
43878;BME280;29815;48.184;11.268;2022-08-20T13:03:19;95660.81;;;21.55;100.00
43878;BME280;29815;48.184;11.268;2022-08-20T13:05:49;95665.63;;;21.58;100.00
43878;BME280;29815;48.184;11.268;2022-08-20T13:08:18;95657.47;;;21.49;100.00